• Join FlightAware (Why Join?)
  • Login
  • US Flag 
07:50AM EDT


 

Airport Tracker/Info


-or-


 

Live Flight TrackerFlight Track Log ✈ DAL6115 ✈ 06-Apr-2013 ✈ KDTW - KTVC

Flight Track Log - Related Links

Times and Time Zones

All times are in EDT time to prevent confusion due to time zone crossing. See the DAL6115 flight status page for this flight to view local times or setup timezone preferences in your user account.

Time Position Orientation Groundspeed Altitude Reporting Facility
EDT Latitude Longitude Course Direction KTS MPH feet Rate Location/Type
12:44PM 42.2058 -83.3556 232° Southwest 165 190 1,100  Level Cleveland Center
12:45PM 42.1514 -83.4483 232° Southwest 213 245 5,700 2,700 Climbing Cleveland Center
12:46PM 42.1703 -83.5222 289° West 233 268 8,400 2,100 Climbing Cleveland Center
12:47PM 42.2142 -83.5972 308° West 273 314 10,000 1,200 Climbing Cleveland Center
12:49PM 42.2833 -83.6678 323° Northwest 300 345 11,000 1,020 Climbing Cleveland Center
12:50PM 42.3611 -83.6378 16° North 292 336 12,200 1,380 Climbing Cleveland Center
12:51PM 42.4711 -83.5869 19° North 339 390 13,800 1,500 Climbing Cleveland Center
12:52PM 42.5681 -83.5408 19° North 345 397 15,300 1,080 Climbing Cleveland Center
12:53PM 42.6672 -83.5792 344° North 350 403 16,000 300 Climbing Cleveland Center
12:54PM 42.7525 -83.6625 324° Northwest 349 402 16,000  Level Cleveland Center
12:55PM 42.8381 -83.7403 326° Northwest 360 414 16,000  Level Cleveland Center
12:56PM 42.9253 -83.8242 325° Northwest 382 440 16,000 -60 Level Cleveland Center
12:57PM 43.0125 -83.9056 326° Northwest 382 440 15,900 -60 Descending Cleveland Center
12:58PM 43.0978 -83.9867 325° Northwest 382 440 15,900  Level Cleveland Center
12:59PM 43.1828 -84.0683 325° Northwest 382 440 15,900  Level Cleveland Center
01:00PM 43.2681 -84.1444 327° Northwest 375 432 15,900  Level Cleveland Center
01:01PM 43.4075 -84.2753 326° Northwest 378 435 15,900  Level Minneapolis Center
01:02PM 43.5092 -84.3725 325° Northwest 374 430 15,900  Level Minneapolis Center
01:03PM 43.5947 -84.4542 325° Northwest 375 432 15,900  Level Minneapolis Center
01:04PM 43.6811 -84.5375 325° Northwest 379 436 15,900 -120 Level Minneapolis Center
01:06PM 43.7831 -84.6364 325° Northwest 376 433 15,700 -480 Descending Minneapolis Center
01:07PM 43.8689 -84.7169 326° Northwest 374 430 15,000 -840 Descending Minneapolis Center
01:08PM 43.9525 -84.7997 325° Northwest 372 428 14,100 -1,080 Descending Minneapolis Center
01:09PM 44.0453 -84.8892 325° Northwest 368 423 12,900 -1,200 Descending Minneapolis Center
01:10PM 44.1264 -84.9686 325° Northwest 361 415 11,700 -1,200 Descending Minneapolis Center
01:11PM 44.2011 -85.0419 325° Northwest 340 391 10,500 -1,260 Descending Minneapolis Center
01:12PM 44.2617 -85.1025 324° Northwest 285 328 9,200 -1,620 Descending Minneapolis Center
01:13PM 44.3308 -85.1703 325° Northwest 259 298 7,200 -1,800 Descending Minneapolis Center
01:14PM 44.3869 -85.2258 325° Northwest 251 289 5,600 -1,260 Descending Minneapolis Center
01:15PM 44.4467 -85.2853 325° Northwest 256 295 4,600 -840 Descending Minneapolis Center
01:16PM 44.4969 -85.3356 325° Northwest 264 304 3,900 -660 Descending Minneapolis Center
01:17PM 44.5725 -85.4122 324° Northwest 274 315 3,300 -420 Descending Minneapolis Center
01:18PM 44.6333 -85.4731 325° Northwest 274 315 3,100 -300 Descending Minneapolis Center
01:19PM 44.6931 -85.5331 324° Northwest 270 311 2,800 -180 Descending Minneapolis Center
01:20PM 44.7092 -85.6267 284° West 234 269 2,800  Level Minneapolis Center
01:21PM 44.7053 -85.7061 266° West 215 247 2,800 -240 Level Minneapolis Center
01:22PM 44.7406 -85.7144 350° North 183 211 2,400 -480 Descending Minneapolis Center
01:23PM 44.7447 -85.6647 83° East 146 168 1,900 -540 Descending Minneapolis Center
01:24PM 44.7431 -85.6108 92° East 135 155 1,300 -600 Descending Minneapolis Center